sensor_id;sensor_type;location;lat;lon;timestamp;P1;P2;P0
72854;PMS7003;60991;51.278;22.550;2023-01-29T00:00:48;16.50;6.25;6.00
72854;PMS7003;60991;51.278;22.550;2023-01-29T00:02:18;15.00;9.00;7.00
72854;PMS7003;60991;51.278;22.550;2023-01-29T00:03:51;13.67;11.33;7.00
72854;PMS7003;60991;51.278;22.550;2023-01-29T00:05:21;11.75;9.00;6.75
72854;PMS7003;60991;51.278;22.550;2023-01-29T00:06:52;10.25;8.50;6.00
72854;PMS7003;60991;51.278;22.550;2023-01-29T00:08:22;7.67;7.00;6.00
72854;PMS7003;60991;51.278;22.550;2023-01-29T00:09:52;11.00;7.00;6.67
72854;PMS7003;60991;51.278;22.550;2023-01-29T00:11:22;10.00;7.00;6.00
72854;PMS7003;60991;51.278;22.550;2023-01-29T00:12:53;11.00;7.00;6.00
72854;PMS7003;60991;51.278;22.550;2023-01-29T00:14:23;7.75;6.00;6.00
72854;PMS7003;60991;51.278;22.550;2023-01-29T00:15:57;10.00;8.67;6.33
72854;PMS7003;60991;51.278;22.550;2023-01-29T00:17:27;12.00;10.00;6.00
72854;PMS7003;60991;51.278;22.550;2023-01-29T00:18:59;9.33;9.33;6.33
72854;PMS7003;60991;51.278;22.550;2023-01-29T00:20:30;11.50;9.00;6.75
72854;PMS7003;60991;51.278;22.550;2023-01-29T00:22:00;16.75;12.00;7.00
72854;PMS7003;60991;51.278;22.550;2023-01-29T00:23:30;9.67;8.33;7.00
72854;PMS7003;60991;51.278;22.550;2023-01-29T00:25:01;7.00;7.00;7.00
72854;PMS7003;60991;51.278;22.550;2023-01-29T00:26:31;7.25;7.25;6.50
72854;PMS7003;60991;51.278;22.550;2023-01-29T00:28:01;9.67;9.67;7.00
72854;PMS7003;60991;51.278;22.550;2023-01-29T00:29:32;11.33;9.00;6.00
72854;PMS7003;60991;51.278;22.550;2023-01-29T00:31:08;12.00;9.00;7.00
72854;PMS7003;60991;51.278;22.550;2023-01-29T00:32:43;16.75;11.25;7.00
72854;PMS7003;60991;51.278;22.550;2023-01-29T00:34:14;13.25;10.50;8.00
72854;PMS7003;60991;51.278;22.550;2023-01-29T00:35:44;14.25;8.25;6.00
72854;PMS7003;60991;51.278;22.550;2023-01-29T00:37:15;20.00;9.33;7.00
72854;PMS7003;60991;51.278;22.550;2023-01-29T00:38:45;15.33;14.33;10.00
72854;PMS7003;60991;51.278;22.550;2023-01-29T00:40:16;15.50;9.75;7.50
72854;PMS7003;60991;51.278;22.550;2023-01-29T00:41:46;24.25;11.75;7.75
72854;PMS7003;60991;51.278;22.550;2023-01-29T00:43:16;20.33;12.33;9.00
72854;PMS7003;60991;51.278;22.550;2023-01-29T00:44:47;14.33;12.00;9.00
72854;PMS7003;60991;51.278;22.550;2023-01-29T00:46:17;9.00;9.00;7.00
72854;PMS7003;60991;51.278;22.550;2023-01-29T00:47:47;21.00;12.00;7.00
72854;PMS7003;60991;51.278;22.550;2023-01-29T00:49:17;21.67;7.00;6.67
72854;PMS7003;60991;51.278;22.550;2023-01-29T00:50:47;13.33;9.67;9.00
72854;PMS7003;60991;51.278;22.550;2023-01-29T00:52:17;13.67;13.00;10.00
72854;PMS7003;60991;51.278;22.550;2023-01-29T00:53:48;18.00;11.33;9.00
72854;PMS7003;60991;51.278;22.550;2023-01-29T00:55:18;15.67;14.33;9.00
72854;PMS7003;60991;51.278;22.550;2023-01-29T00:56:48;15.00;13.00;9.67
72854;PMS7003;60991;51.278;22.550;2023-01-29T00:58:18;9.67;9.67;7.00
72854;PMS7003;60991;51.278;22.550;2023-01-29T00:59:49;19.50;12.00;7.00
72854;PMS7003;60991;51.278;22.550;2023-01-29T01:01:19;7.67;7.67;6.00
72854;PMS7003;60991;51.278;22.550;2023-01-29T01:02:50;13.25;11.00;8.00
72854;PMS7003;60991;51.278;22.550;2023-01-29T01:04:20;12.67;10.00;7.67
72854;PMS7003;60991;51.278;22.550;2023-01-29T01:06:01;13.67;11.33;7.67
72854;PMS7003;60991;51.278;22.550;2023-01-29T01:07:32;13.50;8.50;4.00
72854;PMS7003;60991;51.278;22.550;2023-01-29T01:09:03;13.50;10.25;6.25
72854;PMS7003;60991;51.278;22.550;2023-01-29T01:10:33;10.25;8.75;7.00
72854;PMS7003;60991;51.278;22.550;2023-01-29T01:12:04;10.00;9.33;7.67
72854;PMS7003;60991;51.278;22.550;2023-01-29T01:13:34;11.25;9.75;7.75
72854;PMS7003;60991;51.278;22.550;2023-01-29T01:15:04;16.00;9.67;7.00
72854;PMS7003;60991;51.278;22.550;2023-01-29T01:16:35;10.75;9.00;8.00
72854;PMS7003;60991;51.278;22.550;2023-01-29T01:18:05;7.00;7.00;6.33
72854;PMS7003;60991;51.278;22.550;2023-01-29T01:19:35;12.33;11.00;7.00
72854;PMS7003;60991;51.278;22.550;2023-01-29T01:21:05;9.33;7.67;5.33
72854;PMS7003;60991;51.278;22.550;2023-01-29T01:22:36;12.00;12.00;8.33
72854;PMS7003;60991;51.278;22.550;2023-01-29T01:24:06;20.67;13.00;7.00
72854;PMS7003;60991;51.278;22.550;2023-01-29T01:25:36;9.00;8.00;6.00
72854;PMS7003;60991;51.278;22.550;2023-01-29T01:27:06;16.67;10.00;7.00
72854;PMS7003;60991;51.278;22.550;2023-01-29T01:28:37;10.50;10.50;8.00
72854;PMS7003;60991;51.278;22.550;2023-01-29T01:30:08;11.75;9.00;8.00
72854;PMS7003;60991;51.278;22.550;2023-01-29T01:31:40;10.00;10.00;6.00
72854;PMS7003;60991;51.278;22.550;2023-01-29T01:33:10;17.67;9.00;6.00
72854;PMS7003;60991;51.278;22.550;2023-01-29T01:34:40;10.33;6.00;4.00
72854;PMS7003;60991;51.278;22.550;2023-01-29T01:36:11;13.67;7.67;6.33
72854;PMS7003;60991;51.278;22.550;2023-01-29T01:37:41;7.67;5.33;5.33
72854;PMS7003;60991;51.278;22.550;2023-01-29T01:39:12;12.25;11.75;6.50
72854;PMS7003;60991;51.278;22.550;2023-01-29T01:40:43;6.50;6.00;3.75
72854;PMS7003;60991;51.278;22.550;2023-01-29T01:42:14;17.00;12.75;8.75
72854;PMS7003;60991;51.278;22.550;2023-01-29T01:43:49;15.50;10.50;6.75
72854;PMS7003;60991;51.278;22.550;2023-01-29T01:45:31;16.50;10.25;7.00
72854;PMS7003;60991;51.278;22.550;2023-01-29T01:47:02;12.00;10.00;9.00
72854;PMS7003;60991;51.278;22.550;2023-01-29T01:48:33;17.75;6.75;3.75
72854;PMS7003;60991;51.278;22.550;2023-01-29T01:50:07;9.00;9.00;6.00
72854;PMS7003;60991;51.278;22.550;2023-01-29T01:51:43;16.50;14.50;9.75
72854;PMS7003;60991;51.278;22.550;2023-01-29T01:53:38;13.50;11.25;9.75
72854;PMS7003;60991;51.278;22.550;2023-01-29T01:55:12;14.25;11.50;9.00
72854;PMS7003;60991;51.278;22.550;2023-01-29T01:56:47;15.00;13.00;9.00
72854;PMS7003;60991;51.278;22.550;2023-01-29T01:58:24;17.00;12.50;9.50
72854;PMS7003;60991;51.278;22.550;2023-01-29T02:00:17;16.50;12.75;9.00
72854;PMS7003;60991;51.278;22.550;2023-01-29T02:01:51;12.25;11.00;6.50
72854;PMS7003;60991;51.278;22.550;2023-01-29T02:03:23;12.75;12.00;9.00
72854;PMS7003;60991;51.278;22.550;2023-01-29T02:04:55;14.25;12.00;10.00
72854;PMS7003;60991;51.278;22.550;2023-01-29T02:06:25;23.00;13.75;10.75
72854;PMS7003;60991;51.278;22.550;2023-01-29T02:07:56;16.00;10.00;9.00
72854;PMS7003;60991;51.278;22.550;2023-01-29T02:09:31;12.50;11.50;8.50
72854;PMS7003;60991;51.278;22.550;2023-01-29T02:11:06;19.25;12.75;8.00
72854;PMS7003;60991;51.278;22.550;2023-01-29T02:12:37;15.00;15.00;11.50
72854;PMS7003;60991;51.278;22.550;2023-01-29T02:14:08;18.00;16.50;9.50
72854;PMS7003;60991;51.278;22.550;2023-01-29T02:15:38;19.75;13.25;9.00
72854;PMS7003;60991;51.278;22.550;2023-01-29T02:17:10;9.67;9.67;7.67
72854;PMS7003;60991;51.278;22.550;2023-01-29T02:18:45;15.50;14.00;9.00
72854;PMS7003;60991;51.278;22.550;2023-01-29T02:20:17;17.00;11.50;9.50
72854;PMS7003;60991;51.278;22.550;2023-01-29T02:23:42;14.50;9.50;8.50
72854;PMS7003;60991;51.278;22.550;2023-01-29T02:28:17;10.75;8.50;6.50
72854;PMS7003;60991;51.278;22.550;2023-01-29T02:33:25;8.50;8.50;7.00
72854;PMS7003;60991;51.278;22.550;2023-01-29T02:35:14;13.00;13.00;10.00
72854;PMS7003;60991;51.278;22.550;2023-01-29T02:36:59;10.50;9.75;8.00
72854;PMS7003;60991;51.278;22.550;2023-01-29T02:38:35;14.25;9.75;9.00
72854;PMS7003;60991;51.278;22.550;2023-01-29T02:40:22;18.00;12.25;9.25
72854;PMS7003;60991;51.278;22.550;2023-01-29T02:42:00;17.50;12.75;9.00
72854;PMS7003;60991;51.278;22.550;2023-01-29T02:43:45;17.25;14.00;9.50
72854;PMS7003;60991;51.278;22.550;2023-01-29T02:46:09;12.75;11.25;8.00
72854;PMS7003;60991;51.278;22.550;2023-01-29T02:47:52;15.25;11.00;8.50
72854;PMS7003;60991;51.278;22.550;2023-01-29T02:51:17;15.50;15.00;9.00
72854;PMS7003;60991;51.278;22.550;2023-01-29T02:56:20;16.00;15.75;12.00
72854;PMS7003;60991;51.278;22.550;2023-01-29T02:57:58;8.00;7.00;7.00
72854;PMS7003;60991;51.278;22.550;2023-01-29T02:59:39;14.75;13.25;11.50
72854;PMS7003;60991;51.278;22.550;2023-01-29T03:01:18;19.00;13.50;10.50
72854;PMS7003;60991;51.278;22.550;2023-01-29T03:03:03;15.00;13.00;10.00
72854;PMS7003;60991;51.278;22.550;2023-01-29T03:04:52;12.25;10.25;7.50
72854;PMS7003;60991;51.278;22.550;2023-01-29T03:06:34;15.00;12.50;10.50
72854;PMS7003;60991;51.278;22.550;2023-01-29T03:08:08;17.25;14.50;10.50
72854;PMS7003;60991;51.278;22.550;2023-01-29T03:09:46;14.50;14.00;9.00
72854;PMS7003;60991;51.278;22.550;2023-01-29T03:11:20;15.75;13.50;10.50
72854;PMS7003;60991;51.278;22.550;2023-01-29T03:12:59;17.50;15.75;12.50
72854;PMS7003;60991;51.278;22.550;2023-01-29T03:14:49;23.25;16.00;12.50
72854;PMS7003;60991;51.278;22.550;2023-01-29T03:18:01;18.50;13.25;10.50
72854;PMS7003;60991;51.278;22.550;2023-01-29T03:19:38;18.00;13.00;10.00
72854;PMS7003;60991;51.278;22.550;2023-01-29T03:21:36;28.75;17.00;12.00
72854;PMS7003;60991;51.278;22.550;2023-01-29T03:23:13;21.50;16.50;11.50
72854;PMS7003;60991;51.278;22.550;2023-01-29T03:24:58;14.50;9.50;9.00
72854;PMS7003;60991;51.278;22.550;2023-01-29T03:26:30;4.50;0.00;0.00
72854;PMS7003;60991;51.278;22.550;2023-01-29T03:28:01;21.00;17.00;12.75
72854;PMS7003;60991;51.278;22.550;2023-01-29T03:29:33;14.75;14.75;12.25
72854;PMS7003;60991;51.278;22.550;2023-01-29T03:31:06;19.75;15.00;11.00
72854;PMS7003;60991;51.278;22.550;2023-01-29T03:32:41;21.75;19.50;14.00
72854;PMS7003;60991;51.278;22.550;2023-01-29T03:34:15;26.25;23.25;15.00
72854;PMS7003;60991;51.278;22.550;2023-01-29T03:36:22;30.50;27.00;15.50
72854;PMS7003;60991;51.278;22.550;2023-01-29T03:37:55;31.00;26.00;18.00
72854;PMS7003;60991;51.278;22.550;2023-01-29T03:39:26;35.00;28.00;20.00
72854;PMS7003;60991;51.278;22.550;2023-01-29T03:40:58;39.75;33.75;19.00
72854;PMS7003;60991;51.278;22.550;2023-01-29T03:49:38;30.50;24.25;18.25
72854;PMS7003;60991;51.278;22.550;2023-01-29T03:54:48;27.50;26.00;18.25
72854;PMS7003;60991;51.278;22.550;2023-01-29T04:00:16;22.50;21.50;16.00
72854;PMS7003;60991;51.278;22.550;2023-01-29T04:01:52;30.25;21.50;15.25
72854;PMS7003;60991;51.278;22.550;2023-01-29T04:03:33;30.75;23.00;16.50
72854;PMS7003;60991;51.278;22.550;2023-01-29T04:05:08;29.25;21.25;15.00
72854;PMS7003;60991;51.278;22.550;2023-01-29T04:06:45;21.25;19.50;15.75
72854;PMS7003;60991;51.278;22.550;2023-01-29T04:08:20;18.25;16.50;12.00
72854;PMS7003;60991;51.278;22.550;2023-01-29T04:09:57;23.75;17.50;11.00
72854;PMS7003;60991;51.278;22.550;2023-01-29T04:11:30;23.00;19.00;13.00
72854;PMS7003;60991;51.278;22.550;2023-01-29T04:13:08;24.50;17.00;10.50
72854;PMS7003;60991;51.278;22.550;2023-01-29T04:14:40;18.50;17.00;13.50
72854;PMS7003;60991;51.278;22.550;2023-01-29T04:16:12;18.33;14.33;10.67
72854;PMS7003;60991;51.278;22.550;2023-01-29T04:17:48;21.00;18.50;15.00
72854;PMS7003;60991;51.278;22.550;2023-01-29T04:19:20;23.75;18.25;12.25
72854;PMS7003;60991;51.278;22.550;2023-01-29T04:20:51;15.00;12.75;9.00
72854;PMS7003;60991;51.278;22.550;2023-01-29T04:22:25;19.00;16.50;13.00
72854;PMS7003;60991;51.278;22.550;2023-01-29T04:24:00;23.00;18.25;13.00
72854;PMS7003;60991;51.278;22.550;2023-01-29T04:25:31;26.00;18.67;12.67
72854;PMS7003;60991;51.278;22.550;2023-01-29T04:32:36;27.25;17.25;13.50
72854;PMS7003;60991;51.278;22.550;2023-01-29T04:34:22;21.50;16.50;14.00
72854;PMS7003;60991;51.278;22.550;2023-01-29T04:40:42;24.50;19.50;13.50
72854;PMS7003;60991;51.278;22.550;2023-01-29T04:42:21;24.75;22.00;16.50
72854;PMS7003;60991;51.278;22.550;2023-01-29T04:44:04;22.75;18.00;12.25
72854;PMS7003;60991;51.278;22.550;2023-01-29T04:48:56;26.00;20.50;14.00
72854;PMS7003;60991;51.278;22.550;2023-01-29T04:50:35;25.00;22.50;16.00
72854;PMS7003;60991;51.278;22.550;2023-01-29T04:56:07;20.25;12.75;10.50
72854;PMS7003;60991;51.278;22.550;2023-01-29T04:59:25;24.25;15.00;12.50
72854;PMS7003;60991;51.278;22.550;2023-01-29T05:01:01;18.25;14.25;12.00
72854;PMS7003;60991;51.278;22.550;2023-01-29T05:02:36;21.75;18.50;15.25
72854;PMS7003;60991;51.278;22.550;2023-01-29T05:04:09;24.00;19.00;10.00
72854;PMS7003;60991;51.278;22.550;2023-01-29T05:05:44;16.00;15.75;11.50
72854;PMS7003;60991;51.278;22.550;2023-01-29T05:07:19;18.25;16.00;12.00
72854;PMS7003;60991;51.278;22.550;2023-01-29T05:08:52;21.50;15.00;12.00
72854;PMS7003;60991;51.278;22.550;2023-01-29T05:10:24;23.00;21.50;12.00
72854;PMS7003;60991;51.278;22.550;2023-01-29T05:11:55;22.50;20.25;12.00
72854;PMS7003;60991;51.278;22.550;2023-01-29T05:13:27;19.50;16.50;12.50
72854;PMS7003;60991;51.278;22.550;2023-01-29T05:15:00;14.00;13.00;9.00
72854;PMS7003;60991;51.278;22.550;2023-01-29T05:16:40;19.50;13.00;9.75
72854;PMS7003;60991;51.278;22.550;2023-01-29T05:18:14;18.75;17.50;12.00
72854;PMS7003;60991;51.278;22.550;2023-01-29T05:19:45;17.00;10.50;7.50
72854;PMS7003;60991;51.278;22.550;2023-01-29T05:21:15;9.75;9.75;9.00
72854;PMS7003;60991;51.278;22.550;2023-01-29T05:22:46;12.00;9.67;7.00
72854;PMS7003;60991;51.278;22.550;2023-01-29T05:24:18;11.00;10.50;7.50
72854;PMS7003;60991;51.278;22.550;2023-01-29T05:25:50;12.50;10.00;8.50
72854;PMS7003;60991;51.278;22.550;2023-01-29T05:30:45;12.50;12.00;9.00
72854;PMS7003;60991;51.278;22.550;2023-01-29T05:34:00;14.75;9.25;7.00
72854;PMS7003;60991;51.278;22.550;2023-01-29T05:35:30;11.50;9.50;6.50
72854;PMS7003;60991;51.278;22.550;2023-01-29T05:37:00;14.00;10.50;8.50
72854;PMS7003;60991;51.278;22.550;2023-01-29T05:38:30;15.00;12.00;9.25
72854;PMS7003;60991;51.278;22.550;2023-01-29T05:40:01;12.00;12.00;9.67
72854;PMS7003;60991;51.278;22.550;2023-01-29T05:41:31;15.67;14.33;10.67
72854;PMS7003;60991;51.278;22.550;2023-01-29T05:43:02;20.00;14.50;10.00
72854;PMS7003;60991;51.278;22.550;2023-01-29T05:44:32;12.00;11.75;9.25
72854;PMS7003;60991;51.278;22.550;2023-01-29T05:46:03;9.00;8.33;6.00
72854;PMS7003;60991;51.278;22.550;2023-01-29T05:47:33;15.50;11.50;10.00
72854;PMS7003;60991;51.278;22.550;2023-01-29T05:49:03;14.33;11.33;9.33
72854;PMS7003;60991;51.278;22.550;2023-01-29T05:50:34;14.50;12.50;10.00
72854;PMS7003;60991;51.278;22.550;2023-01-29T05:52:04;22.25;12.00;9.50
72854;PMS7003;60991;51.278;22.550;2023-01-29T05:53:35;15.00;9.00;6.67
72854;PMS7003;60991;51.278;22.550;2023-01-29T05:55:05;16.00;8.33;7.00
72854;PMS7003;60991;51.278;22.550;2023-01-29T05:56:37;9.75;8.50;7.00
72854;PMS7003;60991;51.278;22.550;2023-01-29T05:58:08;13.25;12.00;9.00
72854;PMS7003;60991;51.278;22.550;2023-01-29T05:59:38;18.00;12.00;10.00
72854;PMS7003;60991;51.278;22.550;2023-01-29T06:01:15;15.00;9.00;7.00
72854;PMS7003;60991;51.278;22.550;2023-01-29T06:02:51;13.00;10.75;9.00
72854;PMS7003;60991;51.278;22.550;2023-01-29T06:04:21;13.50;12.00;9.25
72854;PMS7003;60991;51.278;22.550;2023-01-29T06:05:52;18.25;13.25;10.00
72854;PMS7003;60991;51.278;22.550;2023-01-29T06:07:22;13.00;10.00;9.00
72854;PMS7003;60991;51.278;22.550;2023-01-29T06:08:52;20.00;15.50;11.00
72854;PMS7003;60991;51.278;22.550;2023-01-29T06:10:22;21.00;12.00;10.00
72854;PMS7003;60991;51.278;22.550;2023-01-29T06:11:54;12.50;10.00;9.00
72854;PMS7003;60991;51.278;22.550;2023-01-29T06:13:24;13.00;13.00;10.00
72854;PMS7003;60991;51.278;22.550;2023-01-29T06:14:54;16.25;14.50;10.50
72854;PMS7003;60991;51.278;22.550;2023-01-29T06:16:25;12.67;5.33;3.00
72854;PMS7003;60991;51.278;22.550;2023-01-29T06:17:55;17.67;13.67;12.33
72854;PMS7003;60991;51.278;22.550;2023-01-29T06:19:26;16.00;11.75;9.00
72854;PMS7003;60991;51.278;22.550;2023-01-29T06:20:59;16.67;13.00;10.00
72854;PMS7003;60991;51.278;22.550;2023-01-29T06:22:30;17.00;12.75;9.50
72854;PMS7003;60991;51.278;22.550;2023-01-29T06:24:02;17.75;13.00;9.50
72854;PMS7003;60991;51.278;22.550;2023-01-29T06:25:32;15.25;10.50;9.25
72854;PMS7003;60991;51.278;22.550;2023-01-29T06:27:02;10.50;9.25;7.00
72854;PMS7003;60991;51.278;22.550;2023-01-29T06:28:33;15.00;13.00;10.00
72854;PMS7003;60991;51.278;22.550;2023-01-29T06:30:04;21.50;13.25;9.25
72854;PMS7003;60991;51.278;22.550;2023-01-29T06:31:34;18.25;14.50;12.25
72854;PMS7003;60991;51.278;22.550;2023-01-29T06:33:05;26.00;12.75;10.00
72854;PMS7003;60991;51.278;22.550;2023-01-29T06:34:35;15.00;14.33;10.00
72854;PMS7003;60991;51.278;22.550;2023-01-29T06:36:05;13.67;10.00;7.00
72854;PMS7003;60991;51.278;22.550;2023-01-29T06:37:36;16.25;11.50;9.00
72854;PMS7003;60991;51.278;22.550;2023-01-29T06:39:06;13.00;11.50;9.00
72854;PMS7003;60991;51.278;22.550;2023-01-29T06:40:37;15.25;11.50;9.00
72854;PMS7003;60991;51.278;22.550;2023-01-29T06:42:07;14.50;12.00;9.25
72854;PMS7003;60991;51.278;22.550;2023-01-29T06:43:39;17.33;12.67;9.00
72854;PMS7003;60991;51.278;22.550;2023-01-29T06:45:09;13.00;10.50;7.50
72854;PMS7003;60991;51.278;22.550;2023-01-29T06:46:39;12.75;10.00;7.00
72854;PMS7003;60991;51.278;22.550;2023-01-29T06:48:10;17.25;14.50;9.00
72854;PMS7003;60991;51.278;22.550;2023-01-29T06:49:40;13.00;12.67;9.00
72854;PMS7003;60991;51.278;22.550;2023-01-29T06:51:10;18.00;12.67;9.00
72854;PMS7003;60991;51.278;22.550;2023-01-29T06:52:40;14.75;13.25;9.75
72854;PMS7003;60991;51.278;22.550;2023-01-29T06:54:11;16.67;13.00;10.00
72854;PMS7003;60991;51.278;22.550;2023-01-29T06:55:41;12.75;9.50;7.50
72854;PMS7003;60991;51.278;22.550;2023-01-29T06:57:12;15.25;11.00;8.50
72854;PMS7003;60991;51.278;22.550;2023-01-29T06:58:42;15.50;11.50;7.50
72854;PMS7003;60991;51.278;22.550;2023-01-29T07:00:12;13.00;12.00;7.67
72854;PMS7003;60991;51.278;22.550;2023-01-29T07:01:43;15.25;10.00;6.75
72854;PMS7003;60991;51.278;22.550;2023-01-29T07:03:14;18.33;12.33;9.33
72854;PMS7003;60991;51.278;22.550;2023-01-29T07:04:44;14.75;10.50;9.00
72854;PMS7003;60991;51.278;22.550;2023-01-29T07:06:14;15.67;9.00;6.33
72854;PMS7003;60991;51.278;22.550;2023-01-29T07:07:44;9.00;9.00;7.00
72854;PMS7003;60991;51.278;22.550;2023-01-29T07:09:14;9.00;9.00;6.33
72854;PMS7003;60991;51.278;22.550;2023-01-29T07:12:25;9.25;9.25;8.00
72854;PMS7003;60991;51.278;22.550;2023-01-29T07:13:55;12.00;4.00;3.00
72854;PMS7003;60991;51.278;22.550;2023-01-29T07:15:26;9.00;9.00;7.00
72854;PMS7003;60991;51.278;22.550;2023-01-29T07:16:56;9.75;7.50;6.25
72854;PMS7003;60991;51.278;22.550;2023-01-29T07:18:27;12.00;6.33;6.33
72854;PMS7003;60991;51.278;22.550;2023-01-29T07:19:58;9.25;7.50;6.00
72854;PMS7003;60991;51.278;22.550;2023-01-29T07:21:28;9.00;6.67;4.00
72854;PMS7003;60991;51.278;22.550;2023-01-29T07:22:58;8.33;7.00;7.00
72854;PMS7003;60991;51.278;22.550;2023-01-29T07:24:28;7.00;6.00;4.00
72854;PMS7003;60991;51.278;22.550;2023-01-29T07:25:59;9.00;6.00;4.00
72854;PMS7003;60991;51.278;22.550;2023-01-29T07:27:33;9.50;8.50;7.00
72854;PMS7003;60991;51.278;22.550;2023-01-29T07:29:04;9.00;9.00;6.33
72854;PMS7003;60991;51.278;22.550;2023-01-29T07:30:34;6.67;5.33;4.00
72854;PMS7003;60991;51.278;22.550;2023-01-29T07:32:04;10.00;9.50;7.00
72854;PMS7003;60991;51.278;22.550;2023-01-29T07:33:35;15.50;9.75;8.50
72854;PMS7003;60991;51.278;22.550;2023-01-29T07:35:05;11.75;10.50;7.75
72854;PMS7003;60991;51.278;22.550;2023-01-29T07:36:36;11.75;10.25;6.75
72854;PMS7003;60991;51.278;22.550;2023-01-29T07:38:07;13.67;10.00;9.00
72854;PMS7003;60991;51.278;22.550;2023-01-29T07:39:39;6.25;5.50;3.75
72854;PMS7003;60991;51.278;22.550;2023-01-29T07:41:10;7.67;7.67;7.00
72854;PMS7003;60991;51.278;22.550;2023-01-29T07:42:40;7.50;6.00;4.00
72854;PMS7003;60991;51.278;22.550;2023-01-29T07:44:10;9.00;7.00;6.00
72854;PMS7003;60991;51.278;22.550;2023-01-29T07:45:41;6.00;6.00;4.00
72854;PMS7003;60991;51.278;22.550;2023-01-29T07:47:11;7.00;7.00;6.00
72854;PMS7003;60991;51.278;22.550;2023-01-29T07:48:41;9.33;9.33;6.00
72854;PMS7003;60991;51.278;22.550;2023-01-29T07:50:11;10.00;10.00;6.67
72854;PMS7003;60991;51.278;22.550;2023-01-29T07:51:41;9.67;9.00;6.67
72854;PMS7003;60991;51.278;22.550;2023-01-29T07:53:14;8.33;6.00;4.67
72854;PMS7003;60991;51.278;22.550;2023-01-29T07:54:45;6.00;3.50;3.00
72854;PMS7003;60991;51.278;22.550;2023-01-29T07:56:15;9.00;4.00;3.33
72854;PMS7003;60991;51.278;22.550;2023-01-29T07:57:45;10.00;5.33;4.00
72854;PMS7003;60991;51.278;22.550;2023-01-29T07:59:16;7.50;7.50;6.00
72854;PMS7003;60991;51.278;22.550;2023-01-29T08:00:46;4.67;4.67;4.00
72854;PMS7003;60991;51.278;22.550;2023-01-29T08:02:16;7.00;7.00;6.00
72854;PMS7003;60991;51.278;22.550;2023-01-29T08:03:46;6.00;5.50;4.00
72854;PMS7003;60991;51.278;22.550;2023-01-29T08:05:17;7.67;6.00;6.00
72854;PMS7003;60991;51.278;22.550;2023-01-29T08:06:47;6.75;6.00;5.00
72854;PMS7003;60991;51.278;22.550;2023-01-29T08:08:18;7.00;3.00;3.00
72854;PMS7003;60991;51.278;22.550;2023-01-29T08:09:48;9.00;6.33;4.67
72854;PMS7003;60991;51.278;22.550;2023-01-29T08:11:18;7.00;6.33;4.00
72854;PMS7003;60991;51.278;22.550;2023-01-29T08:12:55;7.00;7.00;4.00
72854;PMS7003;60991;51.278;22.550;2023-01-29T08:14:29;6.50;6.50;6.50
72854;PMS7003;60991;51.278;22.550;2023-01-29T08:16:00;6.00;6.00;5.33
72854;PMS7003;60991;51.278;22.550;2023-01-29T08:17:31;8.00;4.00;3.75
72854;PMS7003;60991;51.278;22.550;2023-01-29T08:19:01;7.00;7.00;6.67
72854;PMS7003;60991;51.278;22.550;2023-01-29T08:20:32;6.75;6.25;5.50
72854;PMS7003;60991;51.278;22.550;2023-01-29T08:22:02;4.00;4.00;4.00
72854;PMS7003;60991;51.278;22.550;2023-01-29T08:23:33;4.50;3.00;3.00
72854;PMS7003;60991;51.278;22.550;2023-01-29T08:25:03;10.33;6.00;4.00
72854;PMS7003;60991;51.278;22.550;2023-01-29T08:26:34;10.75;4.00;3.50
72854;PMS7003;60991;51.278;22.550;2023-01-29T08:28:04;5.67;4.00;3.67
72854;PMS7003;60991;51.278;22.550;2023-01-29T08:29:34;11.00;6.50;5.50
72854;PMS7003;60991;51.278;22.550;2023-01-29T08:31:11;9.25;6.25;3.50
72854;PMS7003;60991;51.278;22.550;2023-01-29T08:32:42;7.00;6.50;5.50
72854;PMS7003;60991;51.278;22.550;2023-01-29T08:34:12;12.00;9.00;6.00
72854;PMS7003;60991;51.278;22.550;2023-01-29T08:35:43;7.00;3.67;3.00
72854;PMS7003;60991;51.278;22.550;2023-01-29T08:37:18;12.00;9.00;6.00
72854;PMS7003;60991;51.278;22.550;2023-01-29T08:38:48;9.00;7.00;4.67
72854;PMS7003;60991;51.278;22.550;2023-01-29T08:40:18;6.67;3.67;3.00
72854;PMS7003;60991;51.278;22.550;2023-01-29T08:41:48;5.33;5.33;4.00
72854;PMS7003;60991;51.278;22.550;2023-01-29T08:43:19;6.33;6.00;4.67
72854;PMS7003;60991;51.278;22.550;2023-01-29T08:44:49;9.00;7.00;4.67
72854;PMS7003;60991;51.278;22.550;2023-01-29T08:46:19;8.33;6.67;6.00
72854;PMS7003;60991;51.278;22.550;2023-01-29T08:47:49;11.33;7.00;6.00
72854;PMS7003;60991;51.278;22.550;2023-01-29T08:49:19;10.00;6.67;6.00
72854;PMS7003;60991;51.278;22.550;2023-01-29T08:50:50;10.75;9.00;6.00
72854;PMS7003;60991;51.278;22.550;2023-01-29T08:52:20;6.00;6.00;6.00
72854;PMS7003;60991;51.278;22.550;2023-01-29T08:53:50;6.67;4.00;3.67
72854;PMS7003;60991;51.278;22.550;2023-01-29T08:55:21;11.00;8.50;6.75
72854;PMS7003;60991;51.278;22.550;2023-01-29T08:56:51;10.00;7.67;6.33
72854;PMS7003;60991;51.278;22.550;2023-01-29T08:58:21;12.33;12.00;8.33
72854;PMS7003;60991;51.278;22.550;2023-01-29T08:59:51;8.33;6.67;5.33
72854;PMS7003;60991;51.278;22.550;2023-01-29T09:01:21;11.33;7.00;6.00
72854;PMS7003;60991;51.278;22.550;2023-01-29T09:02:52;9.00;6.33;6.33
72854;PMS7003;60991;51.278;22.550;2023-01-29T09:04:22;10.67;10.00;7.67
72854;PMS7003;60991;51.278;22.550;2023-01-29T09:05:52;8.33;8.33;6.00
72854;PMS7003;60991;51.278;22.550;2023-01-29T09:07:22;6.00;5.33;4.67
72854;PMS7003;60991;51.278;22.550;2023-01-29T09:08:53;6.75;6.25;6.00
72854;PMS7003;60991;51.278;22.550;2023-01-29T09:10:23;8.33;8.33;6.00
72854;PMS7003;60991;51.278;22.550;2023-01-29T09:11:53;12.75;8.50;6.50
72854;PMS7003;60991;51.278;22.550;2023-01-29T09:13:24;7.00;6.00;4.67
72854;PMS7003;60991;51.278;22.550;2023-01-29T09:14:54;8.75;4.00;3.25
72854;PMS7003;60991;51.278;22.550;2023-01-29T09:16:24;9.50;8.00;7.00
72854;PMS7003;60991;51.278;22.550;2023-01-29T09:17:54;9.75;6.50;5.50
72854;PMS7003;60991;51.278;22.550;2023-01-29T09:19:25;12.00;8.33;6.00
72854;PMS7003;60991;51.278;22.550;2023-01-29T09:20:55;10.67;9.00;7.00
72854;PMS7003;60991;51.278;22.550;2023-01-29T09:22:26;8.00;8.00;7.00
72854;PMS7003;60991;51.278;22.550;2023-01-29T09:23:57;7.25;6.25;6.00
72854;PMS7003;60991;51.278;22.550;2023-01-29T09:25:27;11.00;9.00;6.33
72854;PMS7003;60991;51.278;22.550;2023-01-29T09:26:57;10.33;8.00;5.33
72854;PMS7003;60991;51.278;22.550;2023-01-29T09:28:27;11.33;7.00;6.00
72854;PMS7003;60991;51.278;22.550;2023-01-29T09:29:58;10.00;7.67;6.00
72854;PMS7003;60991;51.278;22.550;2023-01-29T09:31:28;14.50;9.50;6.50
72854;PMS7003;60991;51.278;22.550;2023-01-29T09:32:59;17.33;12.00;7.00
72854;PMS7003;60991;51.278;22.550;2023-01-29T09:34:29;12.50;12.50;9.00
72854;PMS7003;60991;51.278;22.550;2023-01-29T09:36:01;9.33;9.33;7.00
72854;PMS7003;60991;51.278;22.550;2023-01-29T09:37:32;9.50;8.00;6.50
72854;PMS7003;60991;51.278;22.550;2023-01-29T09:39:02;9.33;7.00;6.00